createdAt,value
2022-12-17T00:01:05.481Z,32.60
2022-12-17T00:03:52.019Z,30.27
2022-12-17T00:06:38.378Z,31.27
2022-12-17T00:09:24.495Z,31.13
2022-12-17T00:12:10.986Z,32.83
2022-12-17T00:14:56.789Z,30.17
2022-12-17T00:17:42.860Z,31.53
2022-12-17T00:20:29.181Z,31.80
2022-12-17T00:23:22.413Z,30.67
2022-12-17T00:26:12.647Z,32.10
2022-12-17T00:28:59.128Z,33.47
2022-12-17T00:31:48.639Z,31.43
2022-12-17T00:34:34.594Z,31.37
2022-12-17T00:37:20.763Z,31.30
2022-12-17T00:40:07.119Z,31.60
2022-12-17T00:42:53.259Z,32.80
2022-12-17T00:45:42.289Z,32.77
2022-12-17T00:48:28.001Z,32.80
2022-12-17T00:51:14.714Z,31.97
2022-12-17T00:54:00.828Z,33.13
2022-12-17T00:56:46.836Z,32.27
2022-12-17T00:59:32.958Z,31.47
2022-12-17T01:02:19.070Z,32.37
2022-12-17T01:05:05.357Z,32.37
2022-12-17T01:07:51.316Z,31.53
2022-12-17T01:10:37.887Z,32.30
2022-12-17T01:13:24.113Z,32.83
2022-12-17T01:16:10.425Z,31.63
2022-12-17T01:18:57.227Z,32.23
2022-12-17T01:21:43.315Z,32.47
2022-12-17T01:24:29.175Z,32.53
2022-12-17T01:27:15.006Z,32.50
2022-12-17T01:30:00.893Z,32.23
2022-12-17T01:32:46.853Z,32.30
2022-12-17T01:35:32.727Z,32.90
2022-12-17T01:38:18.527Z,33.80
2022-12-17T01:41:04.506Z,34.07
2022-12-17T01:43:51.519Z,32.93
2022-12-17T01:46:37.908Z,33.30
2022-12-17T01:49:24.190Z,33.97
2022-12-17T01:52:11.146Z,33.70
2022-12-17T01:55:05.294Z,34.07
2022-12-17T01:57:51.359Z,33.00
2022-12-17T02:00:38.014Z,33.53
2022-12-17T02:03:41.358Z,33.97
2022-12-17T02:06:44.131Z,33.83
2022-12-17T02:09:34.354Z,33.20
2022-12-17T02:12:29.299Z,34.13
2022-12-17T02:15:15.265Z,33.10
2022-12-17T02:18:02.972Z,34.07
2022-12-17T02:20:51.384Z,33.20
2022-12-17T02:23:56.680Z,32.50
2022-12-17T02:26:54.856Z,33.37
2022-12-17T02:29:41.979Z,33.40
2022-12-17T02:32:28.315Z,34.50
2022-12-17T02:35:14.458Z,34.83
2022-12-17T02:38:05.677Z,33.77
2022-12-17T02:40:54.466Z,35.70
2022-12-17T02:43:44.768Z,34.97
2022-12-17T02:46:31.797Z,35.60
2022-12-17T02:49:19.117Z,34.80
2022-12-17T02:55:10.941Z,35.63
2022-12-17T02:57:56.973Z,34.73
2022-12-17T03:00:46.676Z,35.37
2022-12-17T03:03:32.653Z,34.30
2022-12-17T03:06:18.878Z,34.93
2022-12-17T03:09:05.631Z,35.07
2022-12-17T03:14:59.615Z,34.10
2022-12-17T03:17:45.669Z,35.13
2022-12-17T03:20:31.574Z,34.77
2022-12-17T03:23:21.569Z,33.73
2022-12-17T03:26:07.954Z,34.87
2022-12-17T03:28:54.260Z,33.63
2022-12-17T03:31:40.605Z,34.97
2022-12-17T03:34:27.133Z,35.80
2022-12-17T03:37:13.350Z,34.47
2022-12-17T03:39:59.137Z,35.23
2022-12-17T03:42:45.459Z,34.13
2022-12-17T03:45:31.551Z,34.20
2022-12-17T03:48:27.369Z,35.83
2022-12-17T03:51:13.815Z,34.50
2022-12-17T03:54:00.106Z,34.17
2022-12-17T03:56:47.116Z,34.60
2022-12-17T03:59:33.356Z,35.57
2022-12-17T04:02:19.782Z,34.53
2022-12-17T04:05:06.135Z,34.10
2022-12-17T04:07:52.333Z,34.43
2022-12-17T04:10:38.297Z,35.27
2022-12-17T04:13:24.960Z,35.70
2022-12-17T04:16:11.280Z,34.77
2022-12-17T04:18:57.501Z,33.17
2022-12-17T04:21:43.543Z,33.60
2022-12-17T04:24:29.410Z,34.40
2022-12-17T04:27:15.389Z,32.93
2022-12-17T04:30:01.228Z,33.87
2022-12-17T04:32:47.385Z,33.73
2022-12-17T04:35:33.470Z,34.40
2022-12-17T04:38:19.349Z,34.43
2022-12-17T04:41:05.307Z,32.77
2022-12-17T04:43:51.342Z,34.07
2022-12-17T04:46:37.454Z,35.17
2022-12-17T04:49:23.391Z,34.13
2022-12-17T04:52:09.473Z,33.33
2022-12-17T04:54:55.616Z,33.60
2022-12-17T04:57:41.658Z,32.80
2022-12-17T05:00:28.191Z,33.63
2022-12-17T05:03:14.337Z,32.67
2022-12-17T05:06:00.469Z,32.47
2022-12-17T05:08:46.911Z,33.37
2022-12-17T05:11:33.215Z,33.70
2022-12-17T05:14:19.440Z,33.53
2022-12-17T05:17:05.312Z,33.63
2022-12-17T05:19:51.256Z,32.20
2022-12-17T05:22:37.225Z,33.60
2022-12-17T05:25:23.465Z,34.07
2022-12-17T05:28:09.475Z,34.37
2022-12-17T05:30:56.466Z,33.27
2022-12-17T05:33:42.553Z,32.33
2022-12-17T05:36:28.785Z,31.87
2022-12-17T05:39:14.928Z,31.90
2022-12-17T05:42:00.841Z,33.23
2022-12-17T05:44:46.694Z,32.10
2022-12-17T05:47:32.328Z,31.20
2022-12-17T05:50:18.224Z,32.63
2022-12-17T05:53:04.490Z,32.33
2022-12-17T05:56:12.529Z,31.10
2022-12-17T05:58:59.058Z,31.77
2022-12-17T06:01:45.040Z,31.30
2022-12-17T06:04:31.199Z,33.13
2022-12-17T06:07:17.143Z,31.77
2022-12-17T06:10:03.153Z,31.80
2022-12-17T06:12:49.063Z,31.97
2022-12-17T06:15:34.941Z,33.50
2022-12-17T06:18:20.886Z,31.93
2022-12-17T06:21:07.154Z,32.17
2022-12-17T06:23:53.144Z,32.40
2022-12-17T06:26:42.412Z,31.43
2022-12-17T06:29:28.620Z,31.10
2022-12-17T06:32:14.524Z,35.70
2022-12-17T06:35:00.449Z,35.20
2022-12-17T06:37:46.230Z,35.67
2022-12-17T06:40:32.312Z,45.03
2022-12-17T06:43:18.480Z,42.33
2022-12-17T06:46:05.305Z,33.33
2022-12-17T06:48:51.426Z,32.30
2022-12-17T06:51:37.464Z,32.37
2022-12-17T06:54:23.571Z,30.90
2022-12-17T06:57:09.699Z,32.93
2022-12-17T06:59:55.387Z,31.60
2022-12-17T07:02:41.509Z,31.40
2022-12-17T07:05:27.822Z,30.97
2022-12-17T07:11:21.935Z,34.07
2022-12-17T07:14:08.204Z,37.20
2022-12-17T07:16:54.231Z,32.40
2022-12-17T07:19:40.481Z,32.73
2022-12-17T07:22:26.445Z,32.10
2022-12-17T07:25:12.215Z,32.53
2022-12-17T07:27:58.139Z,32.83
2022-12-17T07:30:44.052Z,32.17
2022-12-17T07:33:29.954Z,33.33
2022-12-17T07:36:15.927Z,32.03
2022-12-17T07:39:01.653Z,31.83
2022-12-17T07:41:47.570Z,31.87
2022-12-17T07:44:33.794Z,32.70
2022-12-17T07:47:19.462Z,34.53
2022-12-17T07:50:05.637Z,33.53
2022-12-17T07:52:51.540Z,33.33
2022-12-17T07:55:37.645Z,33.00
2022-12-17T07:58:24.481Z,32.30
2022-12-17T08:01:10.594Z,34.00
2022-12-17T08:03:56.636Z,34.00
2022-12-17T08:06:42.540Z,33.60
2022-12-17T08:09:28.382Z,33.87
2022-12-17T08:12:14.491Z,33.93
2022-12-17T08:15:00.393Z,34.07
2022-12-17T08:17:46.340Z,33.53
2022-12-17T08:20:32.764Z,33.33
2022-12-17T08:23:22.783Z,35.33
2022-12-17T08:26:08.619Z,35.47
2022-12-17T08:28:54.775Z,35.17
2022-12-17T08:31:42.810Z,35.37
2022-12-17T08:34:28.664Z,36.43
2022-12-17T08:37:14.532Z,33.33
2022-12-17T08:40:00.916Z,36.90
2022-12-17T08:42:47.077Z,36.70
2022-12-17T08:45:33.101Z,36.80
2022-12-17T08:48:26.528Z,35.97
2022-12-17T08:51:13.378Z,36.13
2022-12-17T08:53:59.515Z,36.50
2022-12-17T08:56:46.075Z,41.27
2022-12-17T08:59:32.271Z,37.70
2022-12-17T09:02:18.623Z,38.10
2022-12-17T09:05:04.615Z,38.97
2022-12-17T09:07:51.024Z,36.43
2022-12-17T09:10:37.763Z,39.10
2022-12-17T09:13:28.254Z,36.77
2022-12-17T09:16:14.579Z,37.40
2022-12-17T09:19:01.369Z,36.63
2022-12-17T09:21:50.003Z,36.90
2022-12-17T09:24:36.379Z,38.27
2022-12-17T09:27:22.108Z,41.07
2022-12-17T09:30:07.884Z,37.90
2022-12-17T09:32:53.954Z,36.47
2022-12-17T09:35:40.196Z,37.37
2022-12-17T09:38:26.226Z,36.97
2022-12-17T09:41:12.286Z,37.30
2022-12-17T09:44:14.321Z,35.80
2022-12-17T09:47:10.649Z,37.50
2022-12-17T09:49:56.856Z,35.90
2022-12-17T09:52:48.203Z,34.07
2022-12-17T09:55:40.346Z,33.77
2022-12-17T09:58:33.554Z,34.70
2022-12-17T10:01:19.595Z,33.33
2022-12-17T10:04:06.322Z,34.43
2022-12-17T10:06:52.693Z,32.57
2022-12-17T10:09:38.965Z,32.43
2022-12-17T10:12:30.638Z,30.87
2022-12-17T10:15:16.603Z,25.57
2022-12-17T10:18:02.507Z,24.13
2022-12-17T10:20:51.545Z,23.47
2022-12-17T10:23:43.628Z,26.27
2022-12-17T10:26:29.467Z,28.50
2022-12-17T10:29:22.499Z,25.93
2022-12-17T10:32:08.573Z,24.60
2022-12-17T10:35:00.497Z,25.83
2022-12-17T10:37:51.590Z,25.20
2022-12-17T10:40:48.236Z,25.40
2022-12-17T10:43:51.756Z,24.80
2022-12-17T10:46:48.590Z,24.97
2022-12-17T10:49:38.660Z,25.50
2022-12-17T10:52:34.687Z,25.33
2022-12-17T10:55:35.800Z,28.70
2022-12-17T10:58:22.491Z,27.67
2022-12-17T11:01:08.831Z,28.47
2022-12-17T11:04:06.841Z,28.83
2022-12-17T11:07:01.867Z,28.97
2022-12-17T11:10:07.005Z,28.43
2022-12-17T11:13:00.632Z,28.57
2022-12-17T11:16:02.016Z,29.70
2022-12-17T11:19:11.632Z,30.30
2022-12-17T11:22:07.175Z,29.30
2022-12-17T11:24:57.758Z,28.87
2022-12-17T11:27:46.828Z,30.73
2022-12-17T11:30:36.330Z,30.20
2022-12-17T11:33:37.961Z,29.23
2022-12-17T11:36:38.981Z,28.40
2022-12-17T11:39:36.340Z,29.13
2022-12-17T11:42:51.627Z,29.73
2022-12-17T11:46:00.675Z,30.73
2022-12-17T11:48:49.498Z,30.77
2022-12-17T11:51:37.900Z,29.77
2022-12-17T11:54:32.656Z,28.73
2022-12-17T11:57:21.498Z,29.10
2022-12-17T12:00:18.507Z,30.33
2022-12-17T12:03:15.468Z,29.90
2022-12-17T12:06:09.070Z,29.83
2022-12-17T12:08:58.362Z,30.73
2022-12-17T12:11:47.256Z,31.03
2022-12-17T12:14:36.251Z,31.83
2022-12-17T12:17:28.096Z,30.70
2022-12-17T12:20:30.015Z,31.70
2022-12-17T12:23:31.210Z,30.37
2022-12-17T12:26:20.281Z,28.93
2022-12-17T12:29:13.761Z,31.27
2022-12-17T12:32:04.523Z,32.40
2022-12-17T12:34:51.934Z,30.40
2022-12-17T12:37:39.808Z,28.67
2022-12-17T12:40:51.050Z,30.10
2022-12-17T12:43:43.009Z,29.07
2022-12-17T12:46:34.777Z,30.90
2022-12-17T12:49:28.008Z,30.90
2022-12-17T12:52:15.102Z,28.80
2022-12-17T12:55:07.155Z,28.90
2022-12-17T12:57:53.050Z,25.37
2022-12-17T13:00:54.853Z,25.87
2022-12-17T13:03:49.944Z,26.00
2022-12-17T13:06:36.619Z,26.87
2022-12-17T13:09:15.985Z,26.93
2022-12-17T13:11:48.060Z,27.57
2022-12-17T13:14:19.127Z,26.47
2022-12-17T13:16:54.788Z,27.20
2022-12-17T13:19:38.666Z,26.77
2022-12-17T13:22:21.686Z,26.57
2022-12-17T13:24:55.196Z,25.67
2022-12-17T13:27:34.857Z,25.10
2022-12-17T13:30:23.873Z,24.83
2022-12-17T13:32:51.120Z,24.00
2022-12-17T13:35:33.457Z,24.33
2022-12-17T13:38:06.072Z,23.73
2022-12-17T13:41:09.389Z,25.77
2022-12-17T13:43:46.603Z,24.10
2022-12-17T13:46:21.514Z,27.73
2022-12-17T13:48:58.005Z,22.83
2022-12-17T13:51:27.103Z,22.87
2022-12-17T13:53:59.172Z,22.97
2022-12-17T13:56:28.448Z,22.73
2022-12-17T13:58:56.493Z,21.60
2022-12-17T14:01:26.290Z,20.93
2022-12-17T14:04:06.148Z,21.70
2022-12-17T14:06:35.660Z,20.07
2022-12-17T14:09:03.468Z,21.10
2022-12-17T14:11:51.396Z,21.07
2022-12-17T14:14:31.381Z,21.17
2022-12-17T14:16:59.216Z,20.93
2022-12-17T14:19:27.345Z,19.37
2022-12-17T14:21:55.159Z,17.93
2022-12-17T14:24:27.060Z,17.70
2022-12-17T14:26:56.145Z,18.43
2022-12-17T14:29:24.870Z,20.43
2022-12-17T14:31:53.390Z,17.80
2022-12-17T14:34:20.925Z,18.20
2022-12-17T14:36:53.929Z,17.77
2022-12-17T14:39:29.897Z,18.33
2022-12-17T14:42:16.762Z,18.53
2022-12-17T14:44:51.495Z,17.10
2022-12-17T14:47:45.020Z,18.43
2022-12-17T14:50:18.171Z,17.93
2022-12-17T14:52:55.378Z,18.90
2022-12-17T14:55:31.370Z,17.43
2022-12-17T14:58:07.936Z,16.87
2022-12-17T15:00:38.053Z,17.70
2022-12-17T15:03:05.975Z,18.90
2022-12-17T15:05:33.444Z,18.37
2022-12-17T15:08:00.750Z,17.20
2022-12-17T15:10:27.927Z,17.40
2022-12-17T15:12:55.119Z,17.73
2022-12-17T15:15:22.332Z,16.87
2022-12-17T15:17:49.615Z,30.30
2022-12-17T15:20:18.258Z,22.07
2022-12-17T15:22:46.136Z,19.47
2022-12-17T15:25:18.034Z,18.43
2022-12-17T15:27:46.057Z,17.03
2022-12-17T15:30:17.428Z,17.87
2022-12-17T15:32:45.140Z,17.57
2022-12-17T15:35:13.047Z,17.57
2022-12-17T15:37:40.726Z,16.37
2022-12-17T15:40:10.784Z,16.50
2022-12-17T15:43:00.288Z,17.30
2022-12-17T15:45:31.547Z,16.57
2022-12-17T15:47:58.898Z,17.13
2022-12-17T15:50:26.498Z,16.80
2022-12-17T15:52:53.842Z,16.60
2022-12-17T15:55:21.326Z,16.63
2022-12-17T15:57:48.876Z,16.93
2022-12-17T16:00:16.297Z,16.83
2022-12-17T16:02:43.696Z,16.87
2022-12-17T16:05:11.137Z,16.90
2022-12-17T16:07:38.402Z,17.10
2022-12-17T16:10:06.308Z,17.13
2022-12-17T16:12:33.765Z,17.47
2022-12-17T16:15:01.015Z,16.40
2022-12-17T16:17:28.373Z,16.27
2022-12-17T16:19:55.658Z,17.60
2022-12-17T16:22:22.913Z,17.03
2022-12-17T16:24:52.530Z,16.87
2022-12-17T16:27:20.589Z,16.77
2022-12-17T16:29:48.212Z,16.53
2022-12-17T16:32:16.174Z,16.90
2022-12-17T16:34:43.890Z,17.63
2022-12-17T16:37:11.295Z,17.73
2022-12-17T16:39:38.510Z,17.90
2022-12-17T16:42:05.736Z,18.10
2022-12-17T16:44:32.964Z,18.83
2022-12-17T16:47:00.355Z,17.43
2022-12-17T16:49:27.646Z,18.00
2022-12-17T16:51:57.659Z,18.97
2022-12-17T16:57:11.209Z,19.27
2022-12-17T16:59:38.450Z,18.73
2022-12-17T17:02:06.029Z,18.60
2022-12-17T17:04:33.414Z,18.07
2022-12-17T17:07:00.656Z,18.40
2022-12-17T17:09:28.028Z,19.33
2022-12-17T17:11:56.907Z,20.07
2022-12-17T17:14:24.330Z,18.93
2022-12-17T17:16:51.968Z,20.83
2022-12-17T17:19:19.770Z,19.00
2022-12-17T17:21:52.463Z,18.47
2022-12-17T17:24:22.187Z,19.50
2022-12-17T17:26:50.278Z,19.37
2022-12-17T17:29:17.519Z,19.53
2022-12-17T17:34:32.121Z,19.60
2022-12-17T17:36:59.328Z,28.80
2022-12-17T17:39:27.268Z,20.13
2022-12-17T17:41:54.532Z,18.37
2022-12-17T17:44:21.856Z,19.53
2022-12-17T17:46:49.161Z,19.70
2022-12-17T17:49:16.423Z,18.47
2022-12-17T17:54:31.856Z,18.87
2022-12-17T17:56:59.168Z,18.03
2022-12-17T17:59:32.885Z,19.60
2022-12-17T18:02:02.049Z,21.43
2022-12-17T18:04:29.662Z,18.80
2022-12-17T18:09:44.105Z,18.03
2022-12-17T18:12:30.206Z,18.30
2022-12-17T18:15:13.713Z,17.40
2022-12-17T18:17:42.614Z,17.43
2022-12-17T18:20:12.151Z,17.70
2022-12-17T18:22:57.914Z,17.40
2022-12-17T18:28:09.832Z,17.97
2022-12-17T18:30:38.892Z,19.07
2022-12-17T18:33:06.184Z,18.20
2022-12-17T18:35:33.448Z,18.50
2022-12-17T18:38:00.738Z,16.93
2022-12-17T18:40:33.088Z,19.73
2022-12-17T18:43:19.382Z,93.33
2022-12-17T18:45:46.635Z,24.87
2022-12-17T18:48:13.965Z,19.50
2022-12-17T18:50:41.239Z,18.73
2022-12-17T18:53:08.506Z,19.43
2022-12-17T18:55:40.444Z,19.20
2022-12-17T18:58:10.808Z,19.70
2022-12-17T19:00:38.863Z,19.57
2022-12-17T19:03:06.605Z,19.47
2022-12-17T19:05:34.086Z,19.80
2022-12-17T19:08:01.479Z,19.43
2022-12-17T19:10:28.691Z,20.10
2022-12-17T19:12:56.628Z,20.83
2022-12-17T19:15:23.850Z,20.93
2022-12-17T19:17:51.204Z,20.37
2022-12-17T19:20:19.044Z,19.73
2022-12-17T19:22:46.362Z,20.07
2022-12-17T19:25:13.671Z,20.43
2022-12-17T19:27:40.976Z,21.33
2022-12-17T19:30:08.586Z,20.37
2022-12-17T19:32:35.939Z,21.77
2022-12-17T19:35:03.216Z,82.23
2022-12-17T19:37:30.453Z,78.70
2022-12-17T19:39:57.828Z,36.30
2022-12-17T19:42:25.302Z,22.40
2022-12-17T19:44:53.529Z,21.43
2022-12-17T19:47:21.053Z,22.30
2022-12-17T19:49:48.266Z,21.33
2022-12-17T19:52:15.497Z,22.17
2022-12-17T19:54:42.835Z,21.43
2022-12-17T19:57:10.115Z,22.13
2022-12-17T19:59:37.681Z,21.83
2022-12-17T20:02:05.079Z,20.73
2022-12-17T20:04:32.474Z,24.47
2022-12-17T20:07:00.705Z,23.20
2022-12-17T20:09:28.121Z,24.57
2022-12-17T20:11:55.392Z,22.50
2022-12-17T20:14:26.434Z,25.43
2022-12-17T20:16:55.846Z,24.73
2022-12-17T20:19:25.066Z,25.83
2022-12-17T20:21:52.840Z,26.67
2022-12-17T20:24:21.851Z,27.20
2022-12-17T20:26:51.794Z,25.93
2022-12-17T20:29:19.883Z,27.03
2022-12-17T20:31:49.853Z,25.43
2022-12-17T20:34:37.838Z,25.93
2022-12-17T20:37:05.111Z,28.90
2022-12-17T20:39:32.377Z,29.90
2022-12-17T20:41:59.623Z,30.47
2022-12-17T20:44:26.924Z,31.37
2022-12-17T20:46:54.255Z,31.00
2022-12-17T20:49:21.546Z,31.40
2022-12-17T20:51:48.801Z,29.03
2022-12-17T20:54:16.053Z,30.20
2022-12-17T20:56:43.305Z,32.00
2022-12-17T20:59:14.671Z,31.20
2022-12-17T21:01:42.272Z,32.97
2022-12-17T21:04:09.673Z,32.13
2022-12-17T21:06:38.463Z,42.10
2022-12-17T21:09:06.320Z,51.70
2022-12-17T21:11:34.495Z,33.80
2022-12-17T21:14:08.647Z,33.50
2022-12-17T21:16:37.050Z,33.20
2022-12-17T21:19:05.698Z,33.03
2022-12-17T21:21:34.425Z,33.57
2022-12-17T21:24:02.231Z,33.20
2022-12-17T21:26:31.166Z,32.30
2022-12-17T21:28:59.005Z,31.73
2022-12-17T21:31:28.136Z,30.23
2022-12-17T21:33:56.972Z,29.43
2022-12-17T21:36:27.441Z,28.80
2022-12-17T21:38:54.833Z,30.97
2022-12-17T21:41:23.695Z,30.87
2022-12-17T21:43:57.551Z,30.17
2022-12-17T21:46:28.973Z,29.73
2022-12-17T21:49:00.097Z,28.70
2022-12-17T21:51:28.246Z,30.73
2022-12-17T21:53:57.055Z,29.17
2022-12-17T21:56:24.701Z,29.90
2022-12-17T21:58:56.968Z,31.63
2022-12-17T22:01:25.527Z,31.10
2022-12-17T22:03:54.556Z,30.87
2022-12-17T22:06:23.578Z,31.77
2022-12-17T22:08:58.137Z,41.03
2022-12-17T22:11:28.176Z,37.40
2022-12-17T22:14:07.430Z,34.60
2022-12-17T22:16:42.969Z,31.40
2022-12-17T22:19:11.324Z,30.30
2022-12-17T22:21:40.467Z,30.77
2022-12-17T22:24:07.975Z,65.77
2022-12-17T22:26:35.286Z,30.20
2022-12-17T22:29:03.246Z,28.13
2022-12-17T22:31:49.231Z,28.70
2022-12-17T22:34:55.195Z,27.67
2022-12-17T22:40:26.891Z,27.83
2022-12-17T22:43:52.374Z,27.70
2022-12-17T22:44:37.805Z,28.20
2022-12-17T22:45:46.080Z,27.50
2022-12-17T22:48:13.749Z,28.30
2022-12-17T22:50:45.867Z,27.37
2022-12-17T22:53:28.987Z,27.87
2022-12-17T22:56:12.403Z,28.37
2022-12-17T22:58:43.604Z,28.57
2022-12-17T23:01:10.836Z,28.63
2022-12-17T23:03:38.578Z,31.23
2022-12-17T23:06:07.344Z,32.93
2022-12-17T23:08:34.626Z,58.33
2022-12-17T23:11:16.221Z,30.23
2022-12-17T23:13:43.494Z,30.90
2022-12-17T23:16:13.196Z,29.90
2022-12-17T23:18:41.043Z,30.93
2022-12-17T23:21:12.687Z,33.00
2022-12-17T23:23:40.518Z,35.47
2022-12-17T23:26:13.022Z,33.10
2022-12-17T23:28:41.519Z,39.17
2022-12-17T23:31:10.656Z,33.97
2022-12-17T23:33:38.816Z,33.20
2022-12-17T23:36:07.550Z,32.90
2022-12-17T23:38:34.794Z,32.73
2022-12-17T23:41:09.740Z,32.20
2022-12-17T23:43:37.468Z,30.60
2022-12-17T23:46:05.685Z,30.67
2022-12-17T23:48:51.694Z,29.57
2022-12-17T23:51:19.757Z,27.57
2022-12-17T23:53:47.615Z,27.87
2022-12-17T23:56:19.153Z,28.23
2022-12-17T23:58:46.949Z,26.53
